Pagrindinis puslapis
METAR-TAF:

METAR-TAF

Oro uostai :

Kopenhaga, Danija

platuma: 55-37N, ilguma: 012-39E, Aukštis: 5 m

Dabartinis oras

Ataskaita buvo paskelbta 32 minutes, ne 22:20 UTC
Vėjas 8 kt iš Vakarų
Temperatūra 13°C
Drėgmė 88%
Slėgis 1021 hPa
Matomumas 10 km arba daugiau

METAR: EKCH 202220Z AUTO 26008KT 9999 OVC019/// 13/11 Q1021 NOSIG

Laikas: 00:52 (22:52 UTC)

Prognozė

Ataskaita buvo paskelbta 5 valandos ir 42 minutes, ne 17:10 UTC
Prognozė galioja nuo 20 metu 18 UTC su 21 metu 18 UTC
Vėjas 8 kt iš Vakarų
Matomumas: 9000 m
Su prošvaistėmis ne aukštis 2000 ft
Laikinai
nuo 20 metu 21 UTC su 21 metu 02 UTC
Su prošvaistėmis ne aukštis 1200 ft
Laikinai
nuo 21 metu 02 UTC su 21 metu 09 UTC
Su prošvaistėmis ne aukštis 800 ft

TAF: EKCH 201710Z 2018/2118 27008KT 9000 BKN020 TEMPO 2021/2102 BKN012 TEMPO 2102/2109 BKN008

Orai ataskaitas ir orų prognozės (METAR, TAF).

turimą stotys yra geltonos ir raudonos taškus žemėlapyje.

Perkelti pele per norėdami pamatyti stoties vardą.

Tada spustelėkite, norėdami matyti oro stebėjimo ir prognozės.

Norėdami pakeisti žemėlapį: spustelėkite ant žalios mygtukų su juodo kryžiaus žemyn,; žalią mygtuką su brūkšneliu, jei norite nutolinti; arba žalių rodyklių gretimoms žemėlapius.


METAR-TAF: